Ambroz, Spain

8:55 AM CEST on May 25, 2018 (GMT +0200)
LAS ROSAS | | Change Station

Elev 2280 ft 40.42 °N, 3.61 °W | Updated 26 seconds ago

Light Rain
Light Rain
54.9 °F
Feels Like 54.9 °F
N
0.0
Wind Variable Wind from SW
Gusts 0.0 mph

Today
High -- | Low -- °F
--% Chance of Precip.
Yesterday
High -- | Low -- °F
Precip. -- in
Pressure 29.98 in
Visibility 6.2 miles
Clouds Few 4000 ft
Mostly Cloudy 5000 ft
Dew Point 54 °F
Humidity 96%
Rainfall 0.79 in
Snow Depth Not available.
6:50 AM 9:32 PM
Waxing Gibbous, 82% visible
SPECI LEMD 250646Z 30005KT 270V340 9999 -RA VCTS FEW040CB BKN050 14/13 Q1015 R88/29//95 TEMPO TSRA FEW030CB
Pressure 29.98 in
Visibility 6.2 miles
Clouds Few 4000 ft
Mostly Cloudy 5000 ft
Dew Point 54 °F
Humidity 96%
Rainfall 0.79 in
Snow Depth Not available.
6:50 AM 9:32 PM
Waxing Gibbous, 82% visible
SPECI LEMD 250646Z 30005KT 270V340 9999 -RA VCTS FEW040CB BKN050 14/13 Q1015 R88/29//95 TEMPO TSRA FEW030CB

Get Severe Weather Alerts

Thanks for signing up!

Be on the lookout for a verification email in your inbox.

You'll start receiving the daily forecast at 6 AM.

×

10-Day Weather Forecast

×

Almanac

Astronomy

May. 25, 2018 Rise Set
Actual Time
Civil Twilight
Nautical Twilight
Astronomical Twilight
Moon
Length of Visible Light
Length of Day
Tomorrow will be .
, % of the Moon is Illuminated

Today's Extremes

Country Highs Country Lows

Community

WunderPhotos

Category 6

Welcome to Category 6. This is the collective home for Weather Underground's featured writeups by Dr. Jeff Masters (right), Bob Henson (left), Chris Burt, and other regular contributors.

Nearby

Air Quality

  Air Quality AQ Index Pollutant
Not available.

Snow Depth

Station Depth Elevation

Earthquake Activity

City Distance Mag. Time & Date
Minimum magnitude displayed is 2.5.

Coastal Water Temperatures

Place Temperature

Stations

Nearby Weather Stations

Station Location Temp. Windchill Dew Point Humidity Wind Precip. Elev Updated Type